createdAt,value
2022-11-21T00:04:38.210Z,14.28
2022-11-21T00:09:40.388Z,13.90
2022-11-21T00:14:42.843Z,14.26
2022-11-21T00:19:45.349Z,14.25
2022-11-21T00:24:52.975Z,14.42
2022-11-21T00:29:56.319Z,14.26
2022-11-21T00:34:58.587Z,14.49
2022-11-21T00:40:00.944Z,14.15
2022-11-21T00:45:04.214Z,14.12
2022-11-21T00:50:07.097Z,14.14
2022-11-21T00:55:09.835Z,13.97
2022-11-21T01:00:12.958Z,14.10
2022-11-21T01:05:15.268Z,13.86
2022-11-21T01:10:17.550Z,13.88
2022-11-21T01:15:19.778Z,13.63
2022-11-21T01:20:22.176Z,13.83
2022-11-21T01:25:24.361Z,14.09
2022-11-21T01:30:26.574Z,14.22
2022-11-21T01:35:28.979Z,14.15
2022-11-21T01:40:39.119Z,14.31
2022-11-21T01:45:53.357Z,14.44
2022-11-21T01:50:58.646Z,14.39
2022-11-21T01:56:02.067Z,14.42
2022-11-21T02:01:04.393Z,14.35
2022-11-21T02:06:09.459Z,14.63
2022-11-21T02:11:36.279Z,14.58
2022-11-21T02:16:39.524Z,14.38
2022-11-21T02:21:54.659Z,14.31
2022-11-21T02:26:57.664Z,14.26
2022-11-21T02:32:03.298Z,14.48
2022-11-21T02:37:05.855Z,14.30
2022-11-21T02:42:16.976Z,14.50
2022-11-21T02:47:21.280Z,14.38
2022-11-21T02:52:24.032Z,14.59
2022-11-21T02:57:26.402Z,14.51
2022-11-21T03:02:28.729Z,14.57
2022-11-21T03:07:31.147Z,14.66
2022-11-21T03:12:33.349Z,14.38
2022-11-21T03:17:35.843Z,14.83
2022-11-21T03:22:38.059Z,14.42
2022-11-21T03:27:40.384Z,14.49
2022-11-21T03:32:42.761Z,14.64
2022-11-21T03:37:45.188Z,14.81
2022-11-21T03:42:47.451Z,14.71
2022-11-21T03:47:49.800Z,14.41
2022-11-21T03:52:52.149Z,14.73
2022-11-21T03:57:54.398Z,14.46
2022-11-21T04:02:56.593Z,14.31
2022-11-21T04:07:58.903Z,14.12
2022-11-21T04:13:01.108Z,14.11
2022-11-21T04:18:03.481Z,14.28
2022-11-21T04:23:06.281Z,13.95
2022-11-21T04:28:13.354Z,14.09
2022-11-21T04:33:16.759Z,14.08
2022-11-21T04:38:19.068Z,13.52
2022-11-21T04:43:21.314Z,13.46
2022-11-21T04:48:23.487Z,13.57
2022-11-21T04:53:25.736Z,13.53
2022-11-21T04:58:28.003Z,13.63
2022-11-21T05:03:30.259Z,13.60
2022-11-21T05:08:32.441Z,13.24
2022-11-21T05:13:34.773Z,12.93
2022-11-21T05:18:37.029Z,13.27
2022-11-21T05:23:39.317Z,13.32
2022-11-21T05:28:48.984Z,13.42
2022-11-21T05:33:51.298Z,13.53
2022-11-21T05:38:53.525Z,13.67
2022-11-21T05:43:56.085Z,13.59
2022-11-21T05:48:58.463Z,13.84
2022-11-21T05:54:02.686Z,13.79
2022-11-21T05:59:04.882Z,13.67
2022-11-21T06:04:08.153Z,13.57
2022-11-21T06:09:10.409Z,13.80
2022-11-21T06:14:12.759Z,13.83
2022-11-21T06:19:15.513Z,13.76
2022-11-21T06:24:26.976Z,13.92
2022-11-21T06:29:29.426Z,13.54
2022-11-21T06:34:31.887Z,13.65
2022-11-21T06:39:34.206Z,13.73
2022-11-21T06:44:36.517Z,13.72
2022-11-21T06:49:38.927Z,14.02
2022-11-21T06:54:41.238Z,14.01
2022-11-21T06:59:43.997Z,14.17
2022-11-21T07:04:46.382Z,14.42
2022-11-21T07:09:48.949Z,14.41
2022-11-21T07:14:51.385Z,14.58
2022-11-21T07:19:53.674Z,14.65
2022-11-21T07:24:56.109Z,14.51
2022-11-21T07:29:59.028Z,14.87
2022-11-21T07:35:01.273Z,14.81
2022-11-21T07:40:03.532Z,15.00
2022-11-21T07:45:06.214Z,15.12
2022-11-21T07:50:11.047Z,15.06
2022-11-21T07:55:13.402Z,14.81
2022-11-21T08:00:16.449Z,15.21
2022-11-21T08:05:18.862Z,15.45
2022-11-21T08:10:21.622Z,15.60
2022-11-21T08:15:23.877Z,15.33
2022-11-21T08:20:26.612Z,15.49
2022-11-21T08:25:28.994Z,15.53
2022-11-21T08:30:31.847Z,15.48
2022-11-21T08:35:37.301Z,15.97
2022-11-21T08:40:41.037Z,16.05
2022-11-21T08:45:43.522Z,16.08
2022-11-21T08:50:46.068Z,16.00
2022-11-21T08:55:48.297Z,16.44
2022-11-21T09:00:50.663Z,16.45
2022-11-21T09:05:53.065Z,16.30
2022-11-21T09:10:55.281Z,16.73
2022-11-21T09:16:20.583Z,16.72
2022-11-21T09:21:23.277Z,16.66
2022-11-21T09:26:25.621Z,16.87
2022-11-21T09:31:28.028Z,17.08
2022-11-21T09:36:30.275Z,17.21
2022-11-21T09:42:06.153Z,17.37
2022-11-21T09:47:23.628Z,17.56
2022-11-21T09:52:49.272Z,17.71
2022-11-21T09:57:51.866Z,17.62
2022-11-21T10:02:55.582Z,17.60
2022-11-21T10:08:05.937Z,17.91
2022-11-21T10:13:11.294Z,18.16
2022-11-21T10:19:01.475Z,18.13
2022-11-21T10:24:51.640Z,17.99
2022-11-21T10:30:02.854Z,18.15
2022-11-21T10:35:15.735Z,18.10
2022-11-21T10:40:27.200Z,18.02
2022-11-21T10:45:29.647Z,17.98
2022-11-21T10:50:47.621Z,17.96
2022-11-21T10:56:20.346Z,17.82
2022-11-21T11:01:24.261Z,17.70
2022-11-21T11:06:29.925Z,17.47
2022-11-21T11:11:32.564Z,17.65
2022-11-21T11:16:41.670Z,17.71
2022-11-21T11:21:46.329Z,17.49
2022-11-21T11:26:49.133Z,17.69
2022-11-21T11:31:57.153Z,17.76
2022-11-21T11:37:05.065Z,17.66
2022-11-21T11:42:54.194Z,17.74
2022-11-21T11:47:59.936Z,17.70
2022-11-21T11:53:11.061Z,17.55
2022-11-21T11:58:19.199Z,17.48
2022-11-21T12:03:30.997Z,17.23
2022-11-21T12:08:54.081Z,17.34
2022-11-21T12:13:57.969Z,17.22
2022-11-21T12:19:15.690Z,17.02
2022-11-21T12:24:21.392Z,16.88
2022-11-21T12:29:35.266Z,16.98
2022-11-21T12:35:06.071Z,16.76
2022-11-21T12:40:29.688Z,16.77
2022-11-21T12:45:40.732Z,16.86
2022-11-21T12:51:24.536Z,16.97
2022-11-21T12:57:05.231Z,16.89
2022-11-21T13:02:19.001Z,17.02
2022-11-21T13:07:23.184Z,16.91
2022-11-21T13:12:54.407Z,17.08
2022-11-21T13:18:23.659Z,17.22
2022-11-21T13:23:42.538Z,16.79
2022-11-21T13:28:47.488Z,16.94
2022-11-21T13:33:51.623Z,16.60
2022-11-21T13:38:54.448Z,16.89
2022-11-21T13:44:32.002Z,16.94
2022-11-21T13:49:40.452Z,17.69
2022-11-21T13:55:01.269Z,17.78
2022-11-21T14:00:30.528Z,17.78
2022-11-21T14:06:14.244Z,18.23
2022-11-21T14:11:50.156Z,18.66
2022-11-21T14:17:13.367Z,19.22
2022-11-21T14:22:34.614Z,19.48
2022-11-21T14:27:45.368Z,20.13
2022-11-21T14:32:53.877Z,18.92
2022-11-21T14:37:58.609Z,17.75
2022-11-21T14:43:01.742Z,17.45
2022-11-21T14:48:12.968Z,17.26
2022-11-21T14:53:15.213Z,16.46
2022-11-21T14:58:18.123Z,16.40
2022-11-21T15:03:24.343Z,16.11
2022-11-21T15:19:22.788Z,15.90
2022-11-21T15:24:33.005Z,15.87
2022-11-21T15:29:35.491Z,15.70
2022-11-21T15:34:37.874Z,15.64
2022-11-21T15:39:48.416Z,15.73
2022-11-21T15:45:19.822Z,15.56
2022-11-21T15:50:25.020Z,15.69
2022-11-21T15:55:31.966Z,15.39
2022-11-21T16:00:34.224Z,15.36
2022-11-21T16:05:36.727Z,15.41
2022-11-21T16:10:39.111Z,14.92
2022-11-21T16:15:41.640Z,15.08
2022-11-21T16:20:43.915Z,14.80
2022-11-21T16:25:55.882Z,14.51
2022-11-21T16:30:59.743Z,14.19
2022-11-21T16:36:02.225Z,14.32
2022-11-21T16:41:05.847Z,14.19
2022-11-21T16:46:09.950Z,14.30
2022-11-21T16:51:19.756Z,14.40
2022-11-21T16:56:22.146Z,14.40
2022-11-21T17:01:26.907Z,14.30
2022-11-21T17:06:30.846Z,14.32
2022-11-21T17:11:33.176Z,14.17
2022-11-21T17:16:36.105Z,14.29
2022-11-21T17:21:38.662Z,14.24
2022-11-21T17:26:41.234Z,14.16
2022-11-21T17:31:43.656Z,13.92
2022-11-21T17:36:45.875Z,13.85
2022-11-21T17:41:48.408Z,14.28
2022-11-21T17:46:50.916Z,14.02
2022-11-21T17:51:56.630Z,14.23
2022-11-21T17:57:00.624Z,14.09
2022-11-21T18:02:02.979Z,14.07
2022-11-21T18:07:07.436Z,14.07
2022-11-21T18:12:09.833Z,13.89
2022-11-21T18:17:12.177Z,13.85
2022-11-21T18:22:14.644Z,13.79
2022-11-21T18:27:16.797Z,14.08
2022-11-21T18:32:19.014Z,13.94
2022-11-21T18:37:21.546Z,13.74
2022-11-21T18:42:24.032Z,13.84
2022-11-21T18:47:27.924Z,13.52
2022-11-21T18:52:33.922Z,13.80
2022-11-21T18:57:36.162Z,13.15
2022-11-21T19:02:38.653Z,13.31
2022-11-21T19:07:40.977Z,13.52
2022-11-21T19:12:43.209Z,13.34
2022-11-21T19:17:45.428Z,13.20
2022-11-21T19:22:47.719Z,13.45
2022-11-21T19:27:50.035Z,13.45
2022-11-21T19:32:52.417Z,13.23
2022-11-21T19:37:54.585Z,12.50
2022-11-21T19:42:56.782Z,13.09
2022-11-21T19:47:59.730Z,13.24
2022-11-21T19:53:02.010Z,13.39
2022-11-21T19:58:04.258Z,13.43
2022-11-21T20:03:06.520Z,13.49
2022-11-21T20:08:17.220Z,12.99
2022-11-21T20:13:20.205Z,13.09
2022-11-21T20:18:22.497Z,13.24
2022-11-21T20:23:24.958Z,13.19
2022-11-21T20:28:27.346Z,13.23
2022-11-21T20:33:29.752Z,12.94
2022-11-21T20:38:32.112Z,13.21
2022-11-21T20:44:14.431Z,13.08
2022-11-21T20:48:57.178Z,12.95
2022-11-21T20:54:03.300Z,12.67
2022-11-21T20:59:06.348Z,12.62
2022-11-21T21:04:09.990Z,12.43
2022-11-21T21:09:12.288Z,12.47
2022-11-21T21:14:14.488Z,12.57
2022-11-21T21:19:20.765Z,12.77
2022-11-21T21:24:23.161Z,12.64
2022-11-21T21:29:25.423Z,12.50
2022-11-21T21:34:28.134Z,12.23
2022-11-21T21:39:30.875Z,12.34
2022-11-21T21:44:33.853Z,12.40
2022-11-21T21:49:36.316Z,11.92
2022-11-21T21:54:39.552Z,12.41
2022-11-21T21:59:41.935Z,12.18
2022-11-21T22:04:46.978Z,12.00
2022-11-21T22:09:52.812Z,12.17
2022-11-21T22:14:55.162Z,12.18
2022-11-21T22:19:57.374Z,11.91
2022-11-21T22:24:59.805Z,11.71
2022-11-21T22:30:02.236Z,11.96
2022-11-21T22:35:04.612Z,12.07
2022-11-21T22:40:07.232Z,12.02
2022-11-21T22:45:10.635Z,11.91
2022-11-21T22:50:13.111Z,11.75
2022-11-21T22:55:15.550Z,11.71
2022-11-21T23:00:18.351Z,11.71
2022-11-21T23:05:20.683Z,11.59
2022-11-21T23:10:22.909Z,11.88
2022-11-21T23:15:25.569Z,11.57
2022-11-21T23:20:27.940Z,11.05
2022-11-21T23:25:30.153Z,10.96
2022-11-21T23:30:32.522Z,11.48
2022-11-21T23:35:34.712Z,11.31
2022-11-21T23:40:37.147Z,11.65
2022-11-21T23:45:39.440Z,11.30
2022-11-21T23:50:41.877Z,11.50
2022-11-21T23:55:45.044Z,11.46
